createdAt,value
2019-02-26T00:00:47.315Z,156.83
2019-02-26T00:03:24.024Z,153.23
2019-02-26T00:06:27.918Z,150.27
2019-02-26T00:09:01.925Z,147.97
2019-02-26T00:12:05.060Z,152.60
2019-02-26T00:14:34.639Z,153.30
2019-02-26T00:19:57.833Z,143.60
2019-02-26T00:24:02.778Z,145.40
2019-02-26T00:25:51.949Z,142.90
2019-02-26T00:28:19.756Z,136.17
2019-02-26T00:31:06.093Z,130.47
2019-02-26T00:33:34.287Z,138.93
2019-02-26T00:36:27.032Z,140.33
2019-02-26T00:39:11.166Z,124.87
2019-02-26T00:41:53.269Z,132.63
2019-02-26T00:44:27.346Z,124.63
2019-02-26T00:47:13.265Z,128.47
2019-02-26T00:52:49.070Z,108.23
2019-02-26T00:55:34.887Z,119.57
2019-02-26T00:58:10.679Z,103.53
2019-02-26T01:00:36.781Z,116.53
2019-02-26T01:03:18.515Z,101.73
2019-02-26T01:05:50.667Z,101.10
2019-02-26T01:11:27.900Z,98.87
2019-02-26T01:19:58.865Z,95.13
2019-02-26T01:22:46.594Z,80.83
2019-02-26T01:25:38.169Z,78.47
2019-02-26T01:28:16.059Z,78.30
2019-02-26T01:30:48.935Z,81.43
2019-02-26T01:33:32.057Z,76.20
2019-02-26T01:42:18.090Z,72.43
2019-02-26T01:48:04.506Z,72.93
2019-02-26T01:54:05.257Z,70.50
2019-02-26T01:56:42.683Z,72.20
2019-02-26T01:59:33.833Z,78.40
2019-02-26T02:02:12.154Z,72.77
2019-02-26T02:05:02.399Z,74.10
2019-02-26T02:07:30.099Z,67.60
2019-02-26T02:10:03.293Z,68.27
2019-02-26T02:12:36.854Z,72.20
2019-02-26T02:15:10.120Z,65.03
2019-02-26T02:17:41.244Z,71.37
2019-02-26T02:20:21.328Z,59.90
2019-02-26T02:22:46.726Z,61.97
2019-02-26T02:25:20.678Z,63.30
2019-02-26T02:27:59.330Z,61.90
2019-02-26T02:30:41.253Z,56.47
2019-02-26T02:33:17.222Z,56.03
2019-02-26T02:35:48.681Z,56.00
2019-02-26T02:38:22.850Z,62.40
2019-02-26T02:43:48.692Z,51.33
2019-02-26T02:46:28.137Z,55.47
2019-02-26T02:49:41.761Z,55.33
2019-02-26T02:51:49.220Z,51.20
2019-02-26T02:54:20.935Z,52.70
2019-02-26T02:57:10.005Z,56.53
2019-02-26T02:59:42.436Z,52.97
2019-02-26T03:02:37.662Z,50.50
2019-02-26T03:05:13.873Z,44.10
2019-02-26T03:07:50.341Z,48.73
2019-02-26T03:10:15.499Z,43.33
2019-02-26T03:12:52.182Z,47.33
2019-02-26T03:15:21.905Z,50.53
2019-02-26T03:17:59.663Z,44.67
2019-02-26T03:20:39.253Z,43.33
2019-02-26T03:23:13.122Z,44.60
2019-02-26T03:25:44.547Z,45.10
2019-02-26T03:28:19.959Z,45.57
2019-02-26T03:30:51.773Z,46.97
2019-02-26T03:33:25.949Z,45.30
2019-02-26T03:35:57.583Z,41.63
2019-02-26T03:38:31.890Z,46.23
2019-02-26T03:41:13.431Z,42.70
2019-02-26T03:47:22.214Z,44.00
2019-02-26T03:49:56.102Z,44.37
2019-02-26T03:52:28.955Z,43.17
2019-02-26T03:55:06.809Z,45.00
2019-02-26T03:57:40.914Z,47.63
2019-02-26T04:00:17.398Z,41.17
2019-02-26T04:02:51.537Z,46.07
2019-02-26T04:05:29.460Z,44.30
2019-02-26T04:08:12.856Z,43.87
2019-02-26T04:13:45.897Z,47.13
2019-02-26T04:17:08.929Z,45.97
2019-02-26T04:19:08.807Z,44.77
2019-02-26T04:22:15.245Z,47.00
2019-02-26T04:28:25.102Z,49.53
2019-02-26T04:31:03.266Z,50.23
2019-02-26T04:43:36.152Z,44.50
2019-02-26T04:46:14.590Z,45.47
2019-02-26T04:52:02.993Z,46.50
2019-02-26T04:54:54.292Z,48.37
2019-02-26T05:00:16.014Z,46.47
2019-02-26T05:03:00.954Z,48.40
2019-02-26T05:05:37.128Z,45.70
2019-02-26T05:08:37.648Z,45.63
2019-02-26T05:11:03.297Z,48.50
2019-02-26T05:13:40.988Z,43.93
2019-02-26T05:16:13.622Z,41.37
2019-02-26T05:18:58.303Z,46.83
2019-02-26T05:22:01.621Z,47.70
2019-02-26T05:27:26.133Z,48.57
2019-02-26T05:29:57.659Z,47.43
2019-02-26T05:32:30.771Z,45.90
2019-02-26T05:35:00.495Z,43.60
2019-02-26T05:37:34.799Z,42.07
2019-02-26T05:40:07.097Z,40.67
2019-02-26T05:42:38.952Z,43.40
2019-02-26T05:45:10.231Z,41.87
2019-02-26T05:47:45.410Z,44.63
2019-02-26T05:50:16.597Z,50.77
2019-02-26T05:52:44.571Z,44.20
2019-02-26T05:55:17.587Z,46.63
2019-02-26T05:57:47.540Z,41.77
2019-02-26T06:00:28.508Z,47.03
2019-02-26T06:03:07.203Z,39.47
2019-02-26T06:05:48.940Z,45.20
2019-02-26T06:08:15.957Z,41.97
2019-02-26T06:10:47.556Z,45.23
2019-02-26T06:13:16.294Z,41.17
2019-02-26T06:15:45.216Z,44.67
2019-02-26T06:18:25.784Z,45.10
2019-02-26T06:20:58.455Z,40.80
2019-02-26T06:23:31.105Z,42.57
2019-02-26T06:26:38.136Z,42.17
2019-02-26T06:29:11.232Z,50.13
2019-02-26T06:31:45.088Z,47.30
2019-02-26T06:37:25.503Z,38.13
2019-02-26T06:40:00.477Z,36.43
2019-02-26T06:42:28.320Z,46.90
2019-02-26T06:44:58.412Z,38.33
2019-02-26T06:47:29.305Z,38.70
2019-02-26T06:49:58.958Z,33.23
2019-02-26T06:52:29.902Z,37.93
2019-02-26T06:55:00.214Z,34.30
2019-02-26T06:57:28.635Z,34.30
2019-02-26T07:00:00.662Z,32.77
2019-02-26T07:02:29.021Z,28.67
2019-02-26T07:04:58.020Z,38.70
2019-02-26T07:07:26.754Z,31.37
2019-02-26T07:09:57.424Z,32.03
2019-02-26T07:12:45.543Z,36.53
2019-02-26T07:15:00.163Z,29.50
2019-02-26T07:17:36.189Z,34.17
2019-02-26T07:20:09.179Z,26.03
2019-02-26T07:22:41.500Z,34.00
2019-02-26T07:25:13.975Z,30.37
2019-02-26T07:27:42.821Z,29.90
2019-02-26T07:30:13.194Z,26.40
2019-02-26T07:32:45.121Z,19.90
2019-02-26T07:35:15.950Z,27.03
2019-02-26T07:37:49.040Z,24.03
2019-02-26T07:40:35.919Z,26.60
2019-02-26T07:43:22.636Z,22.67
2019-02-26T07:45:58.136Z,20.80
2019-02-26T07:48:28.943Z,21.10
2019-02-26T07:51:02.911Z,19.53
2019-02-26T07:53:42.053Z,15.50
2019-02-26T07:56:13.849Z,17.60
2019-02-26T08:05:40.100Z,20.12
2019-02-26T08:08:29.898Z,19.80
2019-02-26T08:11:08.376Z,14.53
2019-02-26T08:13:46.059Z,21.35
2019-02-26T08:16:30.839Z,17.92
2019-02-26T08:19:13.641Z,20.65
2019-02-26T08:25:03.300Z,14.28
2019-02-26T08:28:03.883Z,16.05
2019-02-26T08:30:50.591Z,18.02
2019-02-26T08:36:46.228Z,15.72
2019-02-26T08:39:18.944Z,14.98
2019-02-26T08:45:26.015Z,17.40
2019-02-26T08:48:17.136Z,18.15
2019-02-26T08:51:00.764Z,15.30
2019-02-26T08:54:10.457Z,19.70
2019-02-26T08:56:52.758Z,17.95
2019-02-26T09:02:37.111Z,18.40
2019-02-26T09:05:33.862Z,16.17
2019-02-26T09:08:18.924Z,14.78
2019-02-26T09:13:59.518Z,17.57
2019-02-26T09:16:40.667Z,19.42
2019-02-26T09:21:55.043Z,20.08
2019-02-26T09:24:26.385Z,19.73
2019-02-26T09:26:57.567Z,14.68
2019-02-26T09:29:25.736Z,18.15
2019-02-26T09:31:54.604Z,13.10
2019-02-26T09:34:25.972Z,19.17
2019-02-26T09:37:00.148Z,17.30
2019-02-26T09:39:29.423Z,16.12
2019-02-26T09:42:01.239Z,12.07
2019-02-26T09:44:35.909Z,18.80
2019-02-26T09:47:11.578Z,15.50
2019-02-26T09:49:47.829Z,16.05
2019-02-26T09:52:19.022Z,15.68
2019-02-26T09:54:51.148Z,12.93
2019-02-26T09:57:26.316Z,19.60
2019-02-26T10:00:03.204Z,11.48
2019-02-26T10:02:28.797Z,15.10
2019-02-26T10:04:57.898Z,14.63
2019-02-26T10:07:28.911Z,14.53
2019-02-26T10:10:05.947Z,13.70
2019-02-26T10:12:39.266Z,15.70
2019-02-26T10:15:12.606Z,15.78
2019-02-26T10:17:42.826Z,13.08
2019-02-26T10:20:18.209Z,14.25
2019-02-26T10:22:53.089Z,20.57
2019-02-26T10:25:23.354Z,16.23
2019-02-26T10:27:52.539Z,12.95
2019-02-26T10:30:22.219Z,14.30
2019-02-26T10:32:51.086Z,19.25
2019-02-26T10:35:32.458Z,12.10
2019-02-26T10:38:00.422Z,19.23
2019-02-26T10:40:35.371Z,14.93
2019-02-26T10:43:00.121Z,15.83
2019-02-26T10:45:30.085Z,15.95
2019-02-26T10:48:01.424Z,11.43
2019-02-26T10:50:32.276Z,10.40
2019-02-26T10:53:07.193Z,12.60
2019-02-26T10:55:38.326Z,16.30
2019-02-26T10:58:06.926Z,13.25
2019-02-26T11:00:35.390Z,18.17
2019-02-26T11:03:03.740Z,13.78
2019-02-26T11:05:32.522Z,15.88
2019-02-26T11:08:04.779Z,18.07
2019-02-26T11:10:32.062Z,16.00
2019-02-26T11:13:00.967Z,13.68
2019-02-26T11:15:33.254Z,15.13
2019-02-26T11:18:00.108Z,12.30
2019-02-26T11:20:30.849Z,13.07
2019-02-26T11:23:04.124Z,11.85
2019-02-26T11:25:36.998Z,17.17
2019-02-26T11:28:07.357Z,12.53
2019-02-26T11:30:37.030Z,11.40
2019-02-26T11:33:08.045Z,9.53
2019-02-26T11:35:36.364Z,17.87
2019-02-26T11:38:05.155Z,13.17
2019-02-26T11:40:33.917Z,17.33
2019-02-26T11:43:11.268Z,11.17
2019-02-26T11:45:35.185Z,11.50
2019-02-26T11:48:08.769Z,13.23
2019-02-26T11:50:38.828Z,11.63
2019-02-26T11:53:09.883Z,9.33
2019-02-26T11:55:39.142Z,8.90
2019-02-26T11:58:10.278Z,10.77
2019-02-26T12:00:44.494Z,11.43
2019-02-26T12:03:12.330Z,11.73
2019-02-26T12:05:44.146Z,9.00
2019-02-26T12:08:19.099Z,12.43
2019-02-26T12:10:52.258Z,11.97
2019-02-26T12:13:24.914Z,10.47
2019-02-26T12:15:54.511Z,17.73
2019-02-26T12:18:46.943Z,9.77
2019-02-26T12:24:43.060Z,11.50
2019-02-26T12:27:52.964Z,20.27
2019-02-26T12:30:25.750Z,13.87
2019-02-26T12:32:56.347Z,13.17
2019-02-26T12:35:25.159Z,12.30
2019-02-26T12:37:58.860Z,13.83
2019-02-26T12:40:27.961Z,10.07
2019-02-26T12:43:34.044Z,12.10
2019-02-26T12:46:05.428Z,16.13
2019-02-26T12:48:37.878Z,11.93
2019-02-26T12:51:08.255Z,13.63
2019-02-26T12:53:55.082Z,14.60
2019-02-26T12:56:24.845Z,8.97
2019-02-26T12:58:56.191Z,17.87
2019-02-26T13:01:25.614Z,7.77
2019-02-26T13:03:55.613Z,10.07
2019-02-26T13:06:24.506Z,8.53
2019-02-26T13:08:59.119Z,11.83
2019-02-26T13:11:30.877Z,9.80
2019-02-26T13:13:59.785Z,12.10
2019-02-26T13:16:35.923Z,9.73
2019-02-26T13:19:12.872Z,9.63
2019-02-26T13:21:47.257Z,12.93
2019-02-26T13:24:21.397Z,13.30
2019-02-26T13:26:54.361Z,9.50
2019-02-26T13:29:25.898Z,12.60
2019-02-26T13:31:57.178Z,12.80
2019-02-26T13:34:26.111Z,9.50
2019-02-26T13:37:02.130Z,11.00
2019-02-26T13:44:35.879Z,9.83
2019-02-26T13:47:04.635Z,8.90
2019-02-26T13:49:33.597Z,9.70
2019-02-26T13:52:02.328Z,16.27
2019-02-26T13:54:32.767Z,8.80
2019-02-26T13:57:09.263Z,8.47
2019-02-26T13:59:41.706Z,5.90
2019-02-26T14:02:13.799Z,9.50
2019-02-26T14:04:44.087Z,21.73
2019-02-26T14:07:34.792Z,10.77
2019-02-26T14:10:04.264Z,22.03
2019-02-26T14:12:33.076Z,12.20
2019-02-26T14:15:03.726Z,11.40
2019-02-26T14:17:32.272Z,13.37
2019-02-26T14:20:00.970Z,16.90
2019-02-26T14:22:29.688Z,11.43
2019-02-26T14:24:58.502Z,11.87
2019-02-26T14:27:27.314Z,9.03
2019-02-26T14:30:00.418Z,12.37
2019-02-26T14:32:31.226Z,8.50
2019-02-26T14:35:12.122Z,11.83
2019-02-26T14:37:44.860Z,12.13
2019-02-26T14:40:18.591Z,10.03
2019-02-26T14:42:47.461Z,10.40
2019-02-26T14:45:31.096Z,10.43
2019-02-26T14:48:09.932Z,13.20
2019-02-26T14:50:37.857Z,13.07
2019-02-26T14:53:08.263Z,28.27
2019-02-26T14:55:37.112Z,17.13
2019-02-26T14:58:06.001Z,7.33
2019-02-26T15:00:35.777Z,10.40
2019-02-26T15:03:08.949Z,9.03
2019-02-26T15:05:37.135Z,10.87
2019-02-26T15:08:05.888Z,14.27
2019-02-26T15:10:34.718Z,11.20
2019-02-26T15:13:03.386Z,7.23
2019-02-26T15:15:32.285Z,8.97
2019-02-26T15:18:03.386Z,13.97
2019-02-26T15:20:32.336Z,15.33
2019-02-26T15:23:01.380Z,12.90
2019-02-26T15:25:45.164Z,15.43
2019-02-26T15:28:13.939Z,12.07
2019-02-26T15:30:45.571Z,10.47
2019-02-26T15:33:17.596Z,14.00
2019-02-26T15:35:47.546Z,16.30
2019-02-26T15:38:16.270Z,11.70
2019-02-26T15:40:47.391Z,15.37
2019-02-26T15:43:15.727Z,13.80
2019-02-26T15:45:51.729Z,16.27
2019-02-26T15:48:15.142Z,11.77
2019-02-26T15:50:44.087Z,18.77
2019-02-26T15:53:15.328Z,10.53
2019-02-26T15:55:44.396Z,11.37
2019-02-26T15:58:13.229Z,13.73
2019-02-26T16:00:46.605Z,12.03
2019-02-26T16:03:15.693Z,11.47
2019-02-26T16:05:47.749Z,14.57
2019-02-26T16:08:16.696Z,8.63
2019-02-26T16:10:51.660Z,13.80
2019-02-26T16:13:20.507Z,18.50
2019-02-26T16:15:53.909Z,14.30
2019-02-26T16:18:23.796Z,12.17
2019-02-26T16:20:57.040Z,20.13
2019-02-26T16:23:25.914Z,16.30
2019-02-26T16:25:54.801Z,18.97
2019-02-26T16:28:33.501Z,22.57
2019-02-26T16:31:02.352Z,17.27
2019-02-26T16:33:34.279Z,16.03
2019-02-26T16:36:03.216Z,12.63
2019-02-26T16:38:32.366Z,16.57
2019-02-26T16:41:02.794Z,13.97
2019-02-26T16:43:31.546Z,19.53
2019-02-26T16:46:00.460Z,23.67
2019-02-26T16:48:29.248Z,12.17
2019-02-26T16:50:58.480Z,17.87
2019-02-26T16:53:27.276Z,15.57
2019-02-26T16:55:56.209Z,14.70
2019-02-26T16:58:25.072Z,18.53
2019-02-26T17:00:54.063Z,17.20
2019-02-26T17:03:22.800Z,17.97
2019-02-26T17:05:51.509Z,10.23
2019-02-26T17:08:20.177Z,12.10
2019-02-26T17:10:48.994Z,15.63
2019-02-26T17:13:17.804Z,15.70
2019-02-26T17:15:46.743Z,24.57
2019-02-26T17:18:16.205Z,18.87
2019-02-26T17:20:45.383Z,13.47
2019-02-26T17:23:14.544Z,16.20
2019-02-26T17:25:43.402Z,14.60
2019-02-26T17:28:12.850Z,21.17
2019-02-26T17:30:41.748Z,17.60
2019-02-26T17:33:13.209Z,17.03
2019-02-26T17:35:41.156Z,17.50
2019-02-26T17:38:09.977Z,12.60
2019-02-26T17:40:38.888Z,23.20
2019-02-26T17:43:13.360Z,18.40
2019-02-26T17:45:44.670Z,25.10
2019-02-26T17:48:17.163Z,17.70
2019-02-26T17:50:51.635Z,19.63
2019-02-26T17:55:55.110Z,17.20
2019-02-26T17:58:24.014Z,11.30
2019-02-26T18:00:56.673Z,21.97
2019-02-26T18:03:28.345Z,21.90
2019-02-26T18:05:57.141Z,19.30
2019-02-26T18:08:26.171Z,19.27
2019-02-26T18:10:55.111Z,16.30
2019-02-26T18:13:24.131Z,17.07
2019-02-26T18:15:56.028Z,17.20
2019-02-26T18:18:23.189Z,16.87
2019-02-26T18:20:52.027Z,17.07
2019-02-26T18:23:21.060Z,16.67
2019-02-26T18:25:49.926Z,17.30
2019-02-26T18:28:18.869Z,16.40
2019-02-26T18:30:47.784Z,21.63
2019-02-26T18:33:16.625Z,19.87
2019-02-26T18:35:45.491Z,18.80
2019-02-26T18:38:14.307Z,15.73
2019-02-26T18:40:46.081Z,21.70
2019-02-26T18:43:16.489Z,20.20
2019-02-26T18:46:00.423Z,22.23
2019-02-26T18:48:27.447Z,13.47
2019-02-26T18:50:56.312Z,18.80
2019-02-26T18:53:25.054Z,16.10
2019-02-26T18:55:53.945Z,18.27
2019-02-26T18:58:22.967Z,20.20
2019-02-26T19:00:51.825Z,21.03
2019-02-26T19:03:20.556Z,22.07
2019-02-26T19:06:03.513Z,18.37
2019-02-26T19:08:30.033Z,17.27
2019-02-26T19:11:03.730Z,20.47
2019-02-26T19:13:35.655Z,26.53
2019-02-26T19:16:07.259Z,15.80
2019-02-26T19:18:38.500Z,22.50
2019-02-26T19:21:13.630Z,22.60
2019-02-26T19:23:44.485Z,21.77
2019-02-26T19:26:14.311Z,24.80
2019-02-26T19:28:44.872Z,19.13
2019-02-26T19:31:13.796Z,14.13
2019-02-26T19:33:45.574Z,18.13
2019-02-26T19:36:14.602Z,18.50
2019-02-26T19:38:44.582Z,19.97
2019-02-26T19:41:45.282Z,17.83
2019-02-26T19:44:31.098Z,15.83
2019-02-26T19:46:51.336Z,19.57
2019-02-26T19:49:20.280Z,18.87
2019-02-26T19:51:49.432Z,22.83
2019-02-26T19:54:18.354Z,16.20
2019-02-26T19:56:47.224Z,20.13
2019-02-26T19:59:16.186Z,15.77
2019-02-26T20:01:45.813Z,19.90
2019-02-26T20:04:14.851Z,25.87
2019-02-26T20:06:43.682Z,20.80
2019-02-26T20:09:12.550Z,19.40
2019-02-26T20:11:41.504Z,30.83
2019-02-26T20:14:11.653Z,19.00
2019-02-26T20:16:40.800Z,24.43
2019-02-26T20:19:09.728Z,18.53
2019-02-26T20:21:38.551Z,25.37
2019-02-26T20:24:07.420Z,17.70
2019-02-26T20:26:39.106Z,27.47
2019-02-26T20:29:08.406Z,17.73
2019-02-26T20:31:38.426Z,14.73
2019-02-26T20:34:07.382Z,24.03
2019-02-26T20:36:40.312Z,24.63
2019-02-26T20:39:09.138Z,17.73
2019-02-26T20:44:45.223Z,16.57
2019-02-26T20:47:14.405Z,20.30
2019-02-26T20:49:47.506Z,20.70
2019-02-26T20:52:16.495Z,23.73
2019-02-26T20:54:45.382Z,23.00
2019-02-26T20:57:14.379Z,30.97
2019-02-26T20:59:43.192Z,19.60
2019-02-26T21:02:17.770Z,25.57
2019-02-26T21:04:46.760Z,16.20
2019-02-26T21:07:15.485Z,17.40
2019-02-26T21:09:44.394Z,13.40
2019-02-26T21:12:15.759Z,20.20
2019-02-26T21:14:44.521Z,26.10
2019-02-26T21:17:13.296Z,22.17
2019-02-26T21:19:42.184Z,27.27
2019-02-26T21:22:12.957Z,22.93
2019-02-26T21:24:41.410Z,22.63
2019-02-26T21:27:10.265Z,29.33
2019-02-26T21:29:41.044Z,25.83
2019-02-26T21:32:09.563Z,24.83
2019-02-26T21:34:39.796Z,24.47
2019-02-26T21:37:08.775Z,29.13
2019-02-26T21:39:43.541Z,21.83
2019-02-26T21:42:10.642Z,19.83
2019-02-26T21:44:41.693Z,26.57
2019-02-26T21:47:10.129Z,17.53
2019-02-26T21:49:41.199Z,18.53
2019-02-26T21:52:11.124Z,25.07
2019-02-26T21:55:01.226Z,25.37
2019-02-26T21:57:30.545Z,24.93
2019-02-26T21:59:59.576Z,23.83
2019-02-26T22:02:31.628Z,23.17
2019-02-26T22:05:05.065Z,24.63
2019-02-26T22:07:32.455Z,25.43
2019-02-26T22:10:01.183Z,23.17
2019-02-26T22:12:30.229Z,19.60
2019-02-26T22:14:59.003Z,28.80
2019-02-26T22:17:27.898Z,26.63
2019-02-26T22:19:56.688Z,20.40
2019-02-26T22:22:26.229Z,22.10
2019-02-26T22:24:55.779Z,27.50
2019-02-26T22:27:24.588Z,22.77
2019-02-26T22:29:53.337Z,21.70
2019-02-26T22:32:22.149Z,23.03
2019-02-26T22:34:53.608Z,29.40
2019-02-26T22:37:21.524Z,23.03
2019-02-26T22:39:50.339Z,25.37
2019-02-26T22:42:19.423Z,26.53
2019-02-26T22:44:48.181Z,22.73
2019-02-26T22:47:17.110Z,22.03
2019-02-26T22:49:48.794Z,31.13
2019-02-26T22:52:17.481Z,25.23
2019-02-26T22:54:46.241Z,29.13
2019-02-26T22:57:15.137Z,26.80
2019-02-26T22:59:44.071Z,24.77
2019-02-26T23:02:13.186Z,25.23
2019-02-26T23:04:41.923Z,32.30
2019-02-26T23:07:10.796Z,18.43
2019-02-26T23:09:39.508Z,28.57
2019-02-26T23:12:08.941Z,19.83
2019-02-26T23:14:38.826Z,19.37
2019-02-26T23:17:09.112Z,22.03
2019-02-26T23:19:39.439Z,24.93
2019-02-26T23:22:08.508Z,28.63
2019-02-26T23:24:37.497Z,24.07
2019-02-26T23:27:07.096Z,25.87
2019-02-26T23:29:37.903Z,28.40
2019-02-26T23:32:07.881Z,26.90
2019-02-26T23:34:36.671Z,24.83
2019-02-26T23:37:06.133Z,25.23
2019-02-26T23:39:34.900Z,20.10
2019-02-26T23:42:05.953Z,24.63
2019-02-26T23:44:34.255Z,28.33
2019-02-26T23:47:02.962Z,34.40
2019-02-26T23:49:31.841Z,19.43
2019-02-26T23:52:00.653Z,25.87
2019-02-26T23:54:29.429Z,24.13
2019-02-26T23:56:58.427Z,28.97
2019-02-26T23:59:27.157Z,18.90
